Terminal Aerodrome Forecast
Issued by NWS Cleveland, OH

Home | Current Version | Previous Version | Text Only | Print | Product List | Glossary On
Versions: 1 2 3 4 5 6 7 8 9 10 11 12 13 14 15 16 17 18 19 20 21 22 23 24 25 26
154
FTUS41 KCLE 291903 AAA
TAFCAK
TAF AMD
KCAK 291903Z 2919/3018 36008KT P6SM SKC
     FM300800 08011KT P6SM OVC120
     FM301100 08012KT P6SM OVC035
      TEMPO 3015/3017 -SHRA=

USA.gov is the U.S. government's official web portal to all federal, state and local government web resources and services.